Spring Arbor, Michigan
Current Conditions -  °F | °C
As of 5:56 PM on Saturday 22 Nov 2014 (Local Time) from KJXN Reporting Station
Overcast Overcast  
Wind Chill: 42°   Ceiling: 2100
Heat Index: 48°   Visibility: 10mi
Dew Point: 44°   Wind: 15mph
Humidity: 86%   Direction: 220°SW
Pressure: 29.92"   Gusts: 21mph
Location:  42.21°N, 84.56°W
Report Text: KJXN 222256Z 22013G18KT 10SM OVC021 09/07 A2992 RMK AO2 RAB24E38 SLP138 P0002 T00890067
Loading
Personal Weather Stations






























Interactive Weather Map New forecast layout! Learn more

10-Day Weather Forecast

Advertisements
Track Severe Weather on mobile